Time,TemperatureF,DewpointF,PressureIn,WindDirection,WindDirectionDegrees,WindSpeedMPH,WindSpeedGustMPH,Humidity,HourlyPrecipIn,Conditions,Clouds,dailyrainin,SoftwareType,DateUTC
2013-05-28 00:02:00,74.0,46.0,29.49,South,178,0.0,7.0,37,0.00,,,0.00,,2013-05-28 05:02:00,
2013-05-28 00:12:00,74.0,46.0,29.49,South,178,0.0,7.0,37,0.00,,,0.00,,2013-05-28 05:12:00,
2013-05-28 00:22:00,74.0,46.0,29.49,South,178,0.0,7.0,37,0.00,,,0.00,,2013-05-28 05:22:00,
2013-05-28 00:33:00,76.0,44.0,29.48,SW,223,3.0,14.0,32,0.00,,,0.00,,2013-05-28 05:33:00,
2013-05-28 00:42:00,76.0,44.0,29.48,SW,223,3.0,14.0,32,0.00,,,0.00,,2013-05-28 05:42:00,
2013-05-28 00:52:00,76.0,44.0,29.48,SW,223,3.0,14.0,32,0.00,,,0.00,,2013-05-28 05:52:00,
2013-05-28 01:02:00,76.0,45.0,29.47,SW,216,6.0,13.0,33,0.00,,,0.00,,2013-05-28 06:02:00,
2013-05-28 01:12:00,76.0,45.0,29.47,SW,216,6.0,13.0,33,0.00,,,0.00,,2013-05-28 06:12:00,
2013-05-28 01:21:00,76.0,45.0,29.47,SW,216,6.0,13.0,33,0.00,,,0.00,,2013-05-28 06:21:00,
2013-05-28 01:32:00,75.0,50.0,29.47,SW,223,6.0,20.0,41,0.00,,,0.00,,2013-05-28 06:32:00,
2013-05-28 01:42:00,75.0,50.0,29.47,SW,223,6.0,20.0,41,0.00,,,0.00,,2013-05-28 06:42:00,
2013-05-28 01:52:00,75.0,50.0,29.47,SW,223,6.0,20.0,41,0.00,,,0.00,,2013-05-28 06:52:00,
2013-05-28 02:01:00,73.0,49.0,29.45,SE,144,4.0,16.0,43,0.00,,,0.00,,2013-05-28 07:01:00,
2013-05-28 02:11:00,73.0,49.0,29.45,SE,144,4.0,16.0,43,0.00,,,0.00,,2013-05-28 07:11:00,
2013-05-28 02:21:00,73.0,49.0,29.45,SE,144,4.0,16.0,43,0.00,,,0.00,,2013-05-28 07:21:00,
2013-05-28 02:32:00,73.0,52.0,29.45,SW,217,2.0,16.0,47,0.00,,,0.00,,2013-05-28 07:32:00,
2013-05-28 02:42:00,73.0,52.0,29.45,SW,217,2.0,16.0,47,0.00,,,0.00,,2013-05-28 07:42:00,
2013-05-28 02:52:00,73.0,52.0,29.45,SW,217,2.0,16.0,47,0.00,,,0.00,,2013-05-28 07:52:00,
2013-05-28 03:02:00,72.0,52.0,29.44,WSW,239,7.0,20.0,49,0.00,,,0.00,,2013-05-28 08:02:00,
2013-05-28 03:12:00,72.0,52.0,29.44,WSW,239,7.0,20.0,49,0.00,,,0.00,,2013-05-28 08:12:00,
2013-05-28 03:22:00,72.0,52.0,29.44,WSW,239,7.0,20.0,49,0.00,,,0.00,,2013-05-28 08:22:00,
2013-05-28 03:32:00,71.0,53.0,29.44,WNW,285,2.0,14.0,53,0.00,,,0.00,,2013-05-28 08:32:00,
2013-05-28 03:42:00,71.0,53.0,29.44,WNW,285,2.0,14.0,53,0.00,,,0.00,,2013-05-28 08:42:00,
2013-05-28 03:52:00,71.0,53.0,29.44,WNW,285,2.0,14.0,53,0.00,,,0.00,,2013-05-28 08:52:00,
2013-05-28 04:01:00,71.0,55.0,29.43,SSW,208,7.0,20.0,57,0.00,,,0.00,,2013-05-28 09:01:00,
2013-05-28 04:11:00,71.0,55.0,29.43,SSW,208,7.0,20.0,57,0.00,,,0.00,,2013-05-28 09:11:00,
2013-05-28 04:21:00,71.0,55.0,29.43,SSW,208,7.0,20.0,57,0.00,,,0.00,,2013-05-28 09:21:00,
2013-05-28 04:33:00,70.0,55.0,29.41,SSW,194,7.0,20.0,59,0.00,,,0.00,,2013-05-28 09:33:00,
2013-05-28 04:43:00,70.0,55.0,29.41,SSW,194,7.0,20.0,59,0.00,,,0.00,,2013-05-28 09:43:00,
2013-05-28 04:54:00,70.0,55.0,29.41,SSW,194,7.0,20.0,59,0.00,,,0.00,,2013-05-28 09:54:00,
2013-05-28 05:03:00,70.0,53.0,29.41,SSE,155,2.0,13.0,54,0.00,,,0.00,,2013-05-28 10:03:00,
2013-05-28 05:12:00,70.0,53.0,29.41,SSE,155,2.0,13.0,54,0.00,,,0.00,,2013-05-28 10:12:00,
2013-05-28 05:23:00,70.0,53.0,29.41,SSE,155,2.0,13.0,54,0.00,,,0.00,,2013-05-28 10:23:00,
2013-05-28 05:32:00,68.0,53.0,29.43,SSE,155,0.0,1.0,58,0.00,,,0.00,,2013-05-28 10:32:00,
2013-05-28 05:43:00,68.0,53.0,29.43,SSE,155,0.0,1.0,58,0.00,,,0.00,,2013-05-28 10:43:00,
2013-05-28 05:53:00,68.0,53.0,29.43,SSE,155,0.0,1.0,58,0.00,,,0.00,,2013-05-28 10:53:00,
2013-05-28 06:02:00,64.0,52.0,29.45,SSE,155,0.0,3.0,65,0.00,,,0.00,,2013-05-28 11:02:00,
2013-05-28 06:11:00,64.0,52.0,29.45,SSE,155,0.0,3.0,65,0.00,,,0.00,,2013-05-28 11:11:00,
2013-05-28 06:22:00,64.0,52.0,29.45,SSE,155,0.0,3.0,65,0.00,,,0.00,,2013-05-28 11:22:00,
2013-05-28 06:32:00,66.0,45.0,29.46,SSE,157,0.0,3.0,46,0.00,,,0.00,,2013-05-28 11:32:00,
2013-05-28 06:42:00,66.0,45.0,29.46,SSE,157,0.0,3.0,46,0.00,,,0.00,,2013-05-28 11:42:00,
2013-05-28 06:52:00,66.0,45.0,29.46,SSE,157,0.0,3.0,46,0.00,,,0.00,,2013-05-28 11:52:00,
2013-05-28 07:01:00,67.0,47.0,29.46,West,261,0.0,5.0,49,0.00,,,0.00,,2013-05-28 12:01:00,
2013-05-28 07:11:00,67.0,47.0,29.46,West,261,0.0,5.0,49,0.00,,,0.00,,2013-05-28 12:11:00,
2013-05-28 07:21:00,67.0,47.0,29.46,West,261,0.0,5.0,49,0.00,,,0.00,,2013-05-28 12:21:00,
2013-05-28 07:32:00,63.0,48.0,29.48,West,261,0.0,3.0,59,0.00,,,0.00,,2013-05-28 12:32:00,
2013-05-28 07:42:00,63.0,48.0,29.48,West,261,0.0,3.0,59,0.00,,,0.00,,2013-05-28 12:42:00,
2013-05-28 07:52:00,63.0,48.0,29.48,West,261,0.0,3.0,59,0.00,,,0.00,,2013-05-28 12:52:00,
2013-05-28 08:01:00,66.0,49.0,29.47,WSW,258,0.0,3.0,54,0.00,,,0.00,,2013-05-28 13:01:00,
2013-05-28 08:11:00,66.0,49.0,29.47,WSW,258,0.0,3.0,54,0.00,,,0.00,,2013-05-28 13:11:00,
2013-05-28 08:21:00,66.0,49.0,29.47,WSW,258,0.0,3.0,54,0.00,,,0.00,,2013-05-28 13:21:00,
2013-05-28 08:32:00,66.0,51.0,29.47,WSW,258,0.0,1.0,59,0.00,,,0.00,,2013-05-28 13:32:00,
2013-05-28 08:42:00,66.0,51.0,29.47,WSW,258,0.0,1.0,59,0.00,,,0.00,,2013-05-28 13:42:00,
2013-05-28 08:52:00,66.0,51.0,29.47,WSW,258,0.0,1.0,59,0.00,,,0.00,,2013-05-28 13:52:00,
2013-05-28 09:02:00,68.0,51.0,29.52,WSW,258,0.0,1.0,54,0.00,,,0.00,,2013-05-28 14:02:00,
2013-05-28 09:11:00,68.0,51.0,29.52,WSW,258,0.0,1.0,54,0.00,,,0.00,,2013-05-28 14:11:00,
2013-05-28 09:21:00,68.0,51.0,29.52,WSW,258,0.0,1.0,54,0.00,,,0.00,,2013-05-28 14:21:00,
2013-05-28 09:32:00,71.0,50.0,29.50,WSW,258,0.0,1.0,48,0.00,,,0.00,,2013-05-28 14:32:00,
2013-05-28 09:42:00,71.0,50.0,29.50,WSW,258,0.0,1.0,48,0.00,,,0.00,,2013-05-28 14:42:00,
2013-05-28 09:52:00,71.0,50.0,29.50,WSW,258,0.0,1.0,48,0.00,,,0.00,,2013-05-28 14:52:00,
2013-05-28 10:01:00,71.0,50.0,29.50,WSW,258,0.0,1.0,48,0.00,,,0.00,,2013-05-28 15:01:00,
2013-05-28 10:21:00,73.0,48.0,29.51,SW,233,3.0,6.0,41,0.00,,,0.00,,2013-05-28 15:21:00,
2013-05-28 10:33:00,74.0,47.0,29.50,SSW,203,2.0,7.0,39,0.00,,,0.00,,2013-05-28 15:33:00,
2013-05-28 10:43:00,74.0,47.0,29.50,SSW,203,2.0,7.0,39,0.00,,,0.00,,2013-05-28 15:43:00,
2013-05-28 10:53:00,74.0,47.0,29.50,SSW,203,2.0,7.0,39,0.00,,,0.00,,2013-05-28 15:53:00,
2013-05-28 11:03:00,75.0,39.0,29.48,WSW,239,2.0,7.0,27,0.00,,,0.00,,2013-05-28 16:03:00,
2013-05-28 11:13:00,75.0,39.0,29.48,WSW,239,2.0,7.0,27,0.00,,,0.00,,2013-05-28 16:13:00,
2013-05-28 11:22:00,75.0,39.0,29.48,WSW,239,2.0,7.0,27,0.00,,,0.00,,2013-05-28 16:22:00,
2013-05-28 11:33:00,77.0,38.0,29.47,SW,229,3.0,8.0,25,0.00,,,0.00,,2013-05-28 16:33:00,
2013-05-28 11:42:00,77.0,38.0,29.47,SW,229,3.0,8.0,25,0.00,,,0.00,,2013-05-28 16:42:00,
2013-05-28 11:52:00,77.0,38.0,29.47,SW,229,3.0,8.0,25,0.00,,,0.00,,2013-05-28 16:52:00,
2013-05-28 12:02:00,78.0,35.0,29.47,West,265,4.0,18.0,21,0.00,,,0.00,,2013-05-28 17:02:00,
2013-05-28 12:12:00,78.0,35.0,29.47,West,265,4.0,18.0,21,0.00,,,0.00,,2013-05-28 17:12:00,
2013-05-28 12:22:00,78.0,35.0,29.47,West,265,4.0,18.0,21,0.00,,,0.00,,2013-05-28 17:22:00,
2013-05-28 12:32:00,79.0,41.0,29.45,WSW,243,4.0,12.0,26,0.00,,,0.00,,2013-05-28 17:32:00,
2013-05-28 12:42:00,79.0,41.0,29.45,WSW,243,4.0,12.0,26,0.00,,,0.00,,2013-05-28 17:42:00,
2013-05-28 12:52:00,79.0,41.0,29.45,WSW,243,4.0,12.0,26,0.00,,,0.00,,2013-05-28 17:52:00,
2013-05-28 13:01:00,81.0,35.0,29.46,SW,224,6.0,12.0,19,0.00,,,0.00,,2013-05-28 18:01:00,
2013-05-28 13:11:00,81.0,35.0,29.46,SW,224,6.0,12.0,19,0.00,,,0.00,,2013-05-28 18:11:00,
2013-05-28 13:21:00,81.0,35.0,29.46,SW,224,6.0,12.0,19,0.00,,,0.00,,2013-05-28 18:21:00,
2013-05-28 13:32:00,82.0,31.0,29.44,North,357,4.0,12.0,16,0.00,,,0.00,,2013-05-28 18:32:00,
2013-05-28 13:42:00,82.0,31.0,29.44,North,357,4.0,12.0,16,0.00,,,0.00,,2013-05-28 18:42:00,
2013-05-28 13:52:00,82.0,31.0,29.44,North,357,4.0,12.0,16,0.00,,,0.00,,2013-05-28 18:52:00,
2013-05-28 14:01:00,82.0,31.0,29.44,NW,325,5.0,12.0,16,0.00,,,0.00,,2013-05-28 19:01:00,
2013-05-28 14:11:00,82.0,31.0,29.44,NW,325,5.0,12.0,16,0.00,,,0.00,,2013-05-28 19:11:00,
2013-05-28 14:21:00,82.0,31.0,29.44,NW,325,5.0,12.0,16,0.00,,,0.00,,2013-05-28 19:21:00,
2013-05-28 14:32:00,83.0,29.0,29.44,SW,224,6.0,15.0,14,0.00,,,0.00,,2013-05-28 19:32:00,
2013-05-28 14:42:00,83.0,29.0,29.44,SW,224,6.0,15.0,14,0.00,,,0.00,,2013-05-28 19:42:00,
2013-05-28 14:52:00,83.0,29.0,29.44,SW,224,6.0,15.0,14,0.00,,,0.00,,2013-05-28 19:52:00,
2013-05-28 15:01:00,84.0,26.0,29.45,WNW,287,6.0,16.0,12,0.00,,,0.00,,2013-05-28 20:01:00,
2013-05-28 15:11:00,84.0,26.0,29.45,WNW,287,6.0,16.0,12,0.00,,,0.00,,2013-05-28 20:11:00,
2013-05-28 15:22:00,84.0,26.0,29.45,WNW,287,6.0,16.0,12,0.00,,,0.00,,2013-05-28 20:22:00,
2013-05-28 15:32:00,85.0,22.0,29.43,SW,214,10.0,20.0,10,0.00,,,0.00,,2013-05-28 20:32:00,
2013-05-28 15:42:00,85.0,22.0,29.43,SW,214,10.0,20.0,10,0.00,,,0.00,,2013-05-28 20:42:00,
2013-05-28 15:52:00,85.0,22.0,29.43,SW,214,10.0,20.0,10,0.00,,,0.00,,2013-05-28 20:52:00,
2013-05-28 16:02:00,85.0,22.0,29.43,SW,222,7.0,20.0,10,0.00,,,0.00,,2013-05-28 21:02:00,
2013-05-28 16:11:00,85.0,22.0,29.43,SW,222,7.0,20.0,10,0.00,,,0.00,,2013-05-28 21:11:00,
2013-05-28 16:21:00,85.0,22.0,29.43,SW,222,7.0,20.0,10,0.00,,,0.00,,2013-05-28 21:21:00,
2013-05-28 16:33:00,85.0,22.0,29.41,WNW,287,5.0,20.0,10,0.00,,,0.00,,2013-05-28 21:33:00,
2013-05-28 16:43:00,85.0,22.0,29.41,WNW,287,5.0,20.0,10,0.00,,,0.00,,2013-05-28 21:43:00,
2013-05-28 16:53:00,85.0,22.0,29.41,WNW,287,5.0,20.0,10,0.00,,,0.00,,2013-05-28 21:53:00,
2013-05-28 17:02:00,86.0,21.0,29.41,SW,234,5.0,18.0,9,0.00,,,0.00,,2013-05-28 22:02:00,
2013-05-28 17:12:00,86.0,21.0,29.41,SW,234,5.0,18.0,9,0.00,,,0.00,,2013-05-28 22:12:00,
2013-05-28 17:22:00,86.0,21.0,29.41,SW,234,5.0,18.0,9,0.00,,,0.00,,2013-05-28 22:22:00,
2013-05-28 17:32:00,86.0,21.0,29.39,SW,220,7.0,22.0,9,0.00,,,0.00,,2013-05-28 22:32:00,
2013-05-28 17:42:00,86.0,21.0,29.39,SW,220,7.0,22.0,9,0.00,,,0.00,,2013-05-28 22:42:00,
2013-05-28 17:52:00,86.0,21.0,29.39,SW,220,7.0,22.0,9,0.00,,,0.00,,2013-05-28 22:52:00,
2013-05-28 18:02:00,86.0,15.0,29.39,West,259,5.0,17.0,7,0.00,,,0.00,,2013-05-28 23:02:00,
2013-05-28 18:11:00,86.0,15.0,29.39,West,259,5.0,17.0,7,0.00,,,0.00,,2013-05-28 23:11:00,
2013-05-28 18:22:00,86.0,15.0,29.39,West,259,5.0,17.0,7,0.00,,,0.00,,2013-05-28 23:22:00,
2013-05-28 18:32:00,85.0,17.0,29.39,WNW,289,6.0,22.0,8,0.00,,,0.00,,2013-05-28 23:32:00,
2013-05-28 18:42:00,85.0,17.0,29.39,WNW,289,6.0,22.0,8,0.00,,,0.00,,2013-05-28 23:42:00,
2013-05-28 18:52:00,85.0,17.0,29.39,WNW,289,6.0,22.0,8,0.00,,,0.00,,2013-05-28 23:52:00,
2013-05-28 19:02:00,86.0,18.0,29.39,SSW,209,5.0,16.0,8,0.00,,,0.00,,2013-05-29 00:02:00,
2013-05-28 19:11:00,86.0,18.0,29.39,SSW,209,5.0,16.0,8,0.00,,,0.00,,2013-05-29 00:11:00,
2013-05-28 19:21:00,86.0,18.0,29.39,SSW,209,5.0,16.0,8,0.00,,,0.00,,2013-05-29 00:21:00,
2013-05-28 19:32:00,85.0,17.0,29.39,SW,222,3.0,16.0,8,0.00,,,0.00,,2013-05-29 00:32:00,
2013-05-28 19:42:00,85.0,17.0,29.39,SW,222,3.0,16.0,8,0.00,,,0.00,,2013-05-29 00:42:00,
2013-05-28 19:52:00,85.0,17.0,29.39,SW,222,3.0,16.0,8,0.00,,,0.00,,2013-05-29 00:52:00,
2013-05-28 20:01:00,84.0,19.0,29.38,SW,222,6.0,17.0,9,0.00,,,0.00,,2013-05-29 01:01:00,
2013-05-28 20:11:00,84.0,19.0,29.38,SW,222,6.0,17.0,9,0.00,,,0.00,,2013-05-29 01:11:00,
2013-05-28 20:22:00,84.0,19.0,29.38,SW,222,6.0,17.0,9,0.00,,,0.00,,2013-05-29 01:22:00,
2013-05-28 20:32:00,81.0,17.0,29.39,WNW,291,6.0,16.0,9,0.00,,,0.00,,2013-05-29 01:32:00,
2013-05-28 20:42:00,81.0,17.0,29.39,WNW,291,6.0,16.0,9,0.00,,,0.00,,2013-05-29 01:42:00,
2013-05-28 20:52:00,81.0,17.0,29.39,WNW,291,6.0,16.0,9,0.00,,,0.00,,2013-05-29 01:52:00,
2013-05-28 21:02:00,79.0,18.0,29.38,WSW,250,1.0,10.0,10,0.00,,,0.00,,2013-05-29 02:02:00,
2013-05-28 21:12:00,79.0,18.0,29.38,WSW,250,1.0,10.0,10,0.00,,,0.00,,2013-05-29 02:12:00,
2013-05-28 21:21:00,79.0,18.0,29.38,WSW,250,1.0,10.0,10,0.00,,,0.00,,2013-05-29 02:21:00,
2013-05-28 21:32:00,72.0,22.0,29.41,WSW,244,0.0,3.0,15,0.00,,,0.00,,2013-05-29 02:32:00,
2013-05-28 21:42:00,72.0,22.0,29.41,WSW,244,0.0,3.0,15,0.00,,,0.00,,2013-05-29 02:42:00,
2013-05-28 21:52:00,72.0,22.0,29.41,WSW,244,0.0,3.0,15,0.00,,,0.00,,2013-05-29 02:52:00,
2013-05-28 22:02:00,65.0,24.0,29.44,WSW,244,0.0,1.0,21,0.00,,,0.00,,2013-05-29 03:02:00,
2013-05-28 22:12:00,65.0,24.0,29.44,WSW,244,0.0,1.0,21,0.00,,,0.00,,2013-05-29 03:12:00,
2013-05-28 22:21:00,65.0,24.0,29.44,WSW,244,0.0,1.0,21,0.00,,,0.00,,2013-05-29 03:21:00,
2013-05-28 22:33:00,60.0,25.0,29.46,WSW,244,0.0,3.0,26,0.00,,,0.00,,2013-05-29 03:33:00,
2013-05-28 22:43:00,60.0,25.0,29.46,WSW,244,0.0,3.0,26,0.00,,,0.00,,2013-05-29 03:43:00,
2013-05-28 22:53:00,60.0,25.0,29.46,WSW,244,0.0,3.0,26,0.00,,,0.00,,2013-05-29 03:53:00,
2013-05-28 23:02:00,59.0,23.0,29.44,WSW,244,0.0,1.0,25,0.00,,,0.00,,2013-05-29 04:02:00,
2013-05-28 23:13:00,59.0,23.0,29.44,WSW,244,0.0,1.0,25,0.00,,,0.00,,2013-05-29 04:13:00,
2013-05-28 23:23:00,59.0,23.0,29.44,WSW,244,0.0,1.0,25,0.00,,,0.00,,2013-05-29 04:23:00,
2013-05-28 23:33:00,58.0,22.0,29.46,WSW,244,0.0,3.0,25,0.00,,,0.00,,2013-05-29 04:33:00,
2013-05-28 23:42:00,58.0,22.0,29.46,WSW,244,0.0,3.0,25,0.00,,,0.00,,2013-05-29 04:42:00,
2013-05-28 23:52:00,58.0,22.0,29.46,WSW,244,0.0,3.0,25,0.00,,,0.00,,2013-05-29 04:52:00,